Portada
METAR-TAF:

METAR-TAF

Aeroports :

Tarawa, Kiribati

latitud: 01-21N, longitud: 172-55E, altitud: 2 m

Observació

L'informe es va fer fa 24 minuts, a les 05:00 UTC
Vent 10 kt del Est
Temperatura 30°C
Humitat 70%
Pressió 1006 hPa
Visibilitat 10 km o més
Escasses núvols a una alçada de 2000 ft
Núvols disperses a una alçada de 30000 ft

METAR: NGTA 070500Z 09010KT 9999 FEW020 SCT300 30/24 Q1006

Hora: 19:24 (05:24 UTC)

Pronòstic

L'informe es va fer fa 6 hores i 15 minuts, a les 23:09 UTC
Pronòstic vàlid del 07 a les 00 UTC al 07 a les 24 UTC
Vent 12 kt del Est
Visibilitat 10 km o més
Escasses núvols a una alçada de 2000 ft
Cel ennuvolat a una alçada de 10000 ft
Probabilitat 30% :
Temporalment
l' 07 a les 03 UTC al 07 a les 06 UTC
Visibilitat: 5000 m
Cel ennuvolat a una alçada de 1500 ft
Escasses núvols a una alçada de 1800 ft, Cumulonimbus.
tempesta, pluja

TAF: NGTA 062309Z 0700/0724 10012KT 9999 FEW020 BKN100 PROB30 TEMPO 0703/0706 5000 TSRA BKN015 FEW018CB

Observacions i pronòstics meteorològics de més de 4000 aeroports (METAR i TAF).

Les estacions disponibles són els punts grocs i vermells al mapa.

Posi el ratolí al punt desitjat per veure el nom de l'estació.

Feu clic per veure les observacions i els pronòstics meteorològics.

Per canviar el mapa: feu clic els botons verds amb una creu de color negre per apropar; al botó verd amb un guió per allunyar la imatge; o en les fletxes verdes per a mapes adjacents.


METAR-TAF: